Aérodrome :
LOGIN :

S'inscrire | Disclaimer

   EN    FR    IT 

 










Légende :    VFR   VFR Marginal   IFR   IFR Intensif   IFR Très Intensif
Visi : 
Plafond : 
>= 8 km
>= 3000ft
5 à 8 km
1000 à 3000 ft
1500m à 5 km
500 à 1000 ft
800 à 1500m
200 à 500 ft
< 800m
< 200 ft
Symboles :   Orages  Brouillard  Fortes neiges  Fortes précipitations  Vent > 20 kt
SIGMETs :   Divers  Orages  Givrage  Turbulence  Onde Orograph.  Cendres Volcan.






- Altitude de l'aérodrome : 33 ft
- Code IATA : MHZ


EGUN - RAF Mildenhall

DERNIER METAR :
  • 040255Z 12001KT 9999 FEW220 04/01 A3010 RMK AO2A SLP192 WND DATA ESTMD ALSTG/SLP ESTMD RVRNO

METARs EXPIRÉS :
  • 040155Z 11003KT 9999 FEW200 03/00 A3010 RMK AO2A SLP193 WND DATA ESTMD ALSTG/SLP ESTMD RVRNO
  • 040055Z 20004KT 9999 BKN220 06/02 A3009 RMK AO2A SKP191 WND DATA ESTMD ALSTG/SLP ESTMD RVRNO

TAF TAF EGUN
Valide du 03 à 20h jusqu'au 05 à 02h UTC


032000Z 0320/0502 20006KT 9999 BKN050 QNH3009INS
TEMPO 0402/0406 8000 BR
BECMG 0410/0411 18010G15KT 9999 FEW050 QNH3011INS
BECMG 0418/0419 15012KT 9999 FEW050 QNH3009INS TX14/0415Z TN04/0402Z



MET'MAP, la Météo Aéronautique d'un coup d'oeil ! - Copyright ORBIFLY Décembre 2007 - Disclaimer

ORBIFLY MET'MAP TEAM :

Programmation & Développement : Alexandra Zaïnal
Sur une idée originale de : Baudouin d'Aumeries
Assistance à la programmation : Marc-Olivier Méhu
Soutien technique & logistique : Manuel Goepfert

Contact : metmap@orbifly.com




SOURCES & CREDITS :

   NOAA